Time;durP1;ratioP1;P1;durP2;ratioP2;P2;SDS_P1;SDS_P2;PMS_P1;PMS_P2;Temp;Humidity;BMP_temperature;BMP_pressure;BME280_temperature;BME280_humidity;BME280_pressure;Samples;Min_cycle;Max_cycle;Signal;HPM_P1;HPM_P2
2021/12/31 00:00:15;;;;;;;;;;;;;;;10.44;99.82;101599.25;5039213;28;19925;-70
2021/12/31 00:02:40;;;;;;;;;;;;;;;10.49;100.00;101610.44;5042936;28;19954;-70
2021/12/31 00:05:06;;;;;;;;;;;;;;;10.60;100.00;101615.34;5039915;28;19959;-70
2021/12/31 00:07:31;;;;;;;;;;;;;;;10.84;99.95;101605.72;5039255;28;19949;-70
2021/12/31 00:10:00;;;;;;;;;;;;;;;11.10;98.60;101599.53;5044162;28;19921;-70
2021/12/31 00:12:26;;;;;;;;;;;;;;;11.36;97.54;101578.41;5039548;28;20001;-68
2021/12/31 00:14:51;;;;;;;;;;;;;;;11.47;97.14;101578.84;5036749;28;19921;-70
2021/12/31 00:17:16;;;;;;;;;;;;;;;11.59;96.73;101580.16;5050623;28;20542;-70
2021/12/31 00:19:45;;;;;;;;;;;;;;;11.68;96.02;101595.59;5029361;28;20062;-72
2021/12/31 00:24:51;;;;;;;;;;;;;;;11.61;96.34;101588.88;5046060;28;19954;-73
2021/12/31 00:27:17;;;;;;;;;;;;;;;11.58;96.22;101588.97;5041833;28;20739;-74
2021/12/31 00:29:42;;;;;;;;;;;;;;;11.52;96.31;101592.72;5053470;28;20041;-70
2021/12/31 00:32:07;;;;;;;;;;;;;;;11.50;96.42;101591.06;5029690;28;19960;-70
2021/12/31 00:34:33;;;;;;;;;;;;;;;11.51;95.99;101583.09;5039353;28;20385;-70
2021/12/31 00:36:58;;;;;;;;;;;;;;;11.45;96.45;101597.34;5039339;28;19958;-71
2021/12/31 00:39:23;;;;;;;;;;;;;;;11.44;96.09;101598.25;5033640;28;19975;-70
2021/12/31 00:41:48;;;;;;;;;;;;;;;11.43;96.59;101604.44;5036652;28;19983;-69
2021/12/31 00:44:14;;;;;;;;;;;;;;;11.46;96.33;101585.06;5063438;28;19991;-71
2021/12/31 00:46:39;;;;;;;;;;;;;;;11.46;96.12;101600.84;5047704;28;19977;-70
2021/12/31 00:49:05;;;;;;;;;;;;;;;11.43;96.24;101600.97;5047372;28;20001;-70
2021/12/31 00:51:31;;;;;;;;;;;;;;;11.43;96.08;101601.81;5048774;28;20009;-70
2021/12/31 00:53:56;;;;;;;;;;;;;;;11.40;96.37;101596.69;5047984;28;19952;-70
2021/12/31 00:56:21;;;;;;;;;;;;;;;11.39;96.42;101594.97;5063088;28;20586;-71
2021/12/31 00:58:47;;;;;;;;;;;;;;;11.41;96.54;101600.16;5043260;28;19977;-71
2021/12/31 01:01:17;;;;;;;;;;;;;;;11.39;96.71;101600.22;5041855;28;19959;-70
2021/12/31 01:03:43;;;;;;;;;;;;;;;11.45;96.51;101605.25;5048769;28;20007;-75
2021/12/31 01:06:08;;;;;;;;;;;;;;;11.51;96.46;101609.41;5045101;28;20027;-71
2021/12/31 01:08:34;;;;;;;;;;;;;;;11.63;96.15;101594.91;5048587;28;19956;-72
2021/12/31 01:10:59;;;;;;;;;;;;;;;11.60;96.22;101600.31;5048867;28;19974;-71
2021/12/31 01:13:33;;;;;;;;;;;;;;;11.61;96.05;101604.66;5040866;28;20349;-71
2021/12/31 01:16:01;;;;;;;;;;;;;;;11.63;96.01;101605.44;5042206;28;20421;-70
2021/12/31 01:21:07;;;;;;;;;;;;;;;11.74;95.73;101594.50;5046659;28;20020;-70
2021/12/31 01:23:35;;;;;;;;;;;;;;;11.72;95.86;101604.22;5042686;28;19986;-74
2021/12/31 01:26:00;;;;;;;;;;;;;;;11.74;95.69;101597.13;5049935;28;19995;-72
2021/12/31 01:28:25;;;;;;;;;;;;;;;11.73;95.85;101598.91;5053267;28;20356;-75
2021/12/31 01:30:50;;;;;;;;;;;;;;;11.73;96.08;101598.03;5044094;28;19956;-70
2021/12/31 01:33:16;;;;;;;;;;;;;;;11.72;95.96;101596.31;5042637;28;19997;-72
2021/12/31 01:35:41;;;;;;;;;;;;;;;11.75;95.95;101607.59;5039193;28;19999;-76
2021/12/31 01:38:06;;;;;;;;;;;;;;;11.81;95.81;101609.13;5038796;28;19951;-74
2021/12/31 01:40:32;;;;;;;;;;;;;;;11.81;95.81;101614.38;5036848;28;19963;-76
2021/12/31 01:42:57;;;;;;;;;;;;;;;11.84;95.66;101610.81;5046944;28;20002;-77
2021/12/31 01:45:23;;;;;;;;;;;;;;;11.85;95.50;101609.88;5043277;28;19978;-75
2021/12/31 01:50:30;;;;;;;;;;;;;;;11.83;95.57;101607.28;5040040;28;19955;-76
2021/12/31 01:52:55;;;;;;;;;;;;;;;11.87;95.38;101608.03;5046868;28;20001;-77
2021/12/31 01:55:22;;;;;;;;;;;;;;;11.85;95.32;101604.63;5043187;28;20489;-76
2021/12/31 01:57:48;;;;;;;;;;;;;;;11.85;95.19;101608.09;5029173;28;20446;-75
2021/12/31 02:00:13;;;;;;;;;;;;;;;11.90;94.94;101610.53;5032947;28;19969;-75
2021/12/31 02:02:41;;;;;;;;;;;;;;;11.88;94.97;101607.97;5038016;28;20398;-75
2021/12/31 02:05:07;;;;;;;;;;;;;;;11.95;95.05;101613.88;5036901;28;20399;-78
2021/12/31 02:07:32;;;;;;;;;;;;;;;12.00;94.94;101611.06;5034694;28;19956;-77
2021/12/31 02:09:57;;;;;;;;;;;;;;;11.99;95.46;101615.47;5037231;28;19952;-71
2021/12/31 02:12:22;;;;;;;;;;;;;;;11.96;95.76;101617.34;5044116;28;20411;-74
2021/12/31 02:14:49;;;;;;;;;;;;;;;11.94;95.72;101621.81;5025405;28;20564;-77
2021/12/31 02:17:14;;;;;;;;;;;;;;;11.89;96.06;101609.69;5020332;28;20424;-76
2021/12/31 02:19:40;;;;;;;;;;;;;;;11.96;96.06;101617.34;5049741;28;20033;-77
2021/12/31 02:22:06;;;;;;;;;;;;;;;11.97;95.83;101619.06;5027905;28;19968;-77
2021/12/31 02:24:32;;;;;;;;;;;;;;;11.94;95.87;101621.81;5023680;28;19952;-77
2021/12/31 02:26:58;;;;;;;;;;;;;;;11.93;95.55;101617.44;5025460;28;20615;-75
2021/12/31 02:29:25;;;;;;;;;;;;;;;11.91;95.38;101618.38;5043791;28;19957;-77
2021/12/31 02:31:51;;;;;;;;;;;;;;;11.86;95.29;101622.97;5044408;28;19949;-76
2021/12/31 02:34:16;;;;;;;;;;;;;;;11.82;95.45;101629.28;5036408;28;19954;-75
2021/12/31 02:36:41;;;;;;;;;;;;;;;11.81;95.57;101622.28;5023917;28;19951;-75
2021/12/31 02:39:07;;;;;;;;;;;;;;;11.84;95.36;101627.44;5021821;28;20476;-70
2021/12/31 02:41:32;;;;;;;;;;;;;;;11.80;95.32;101630.25;5022608;28;19987;-71
2021/12/31 02:43:57;;;;;;;;;;;;;;;11.76;95.83;101634.78;5015022;28;19947;-70
2021/12/31 02:46:23;;;;;;;;;;;;;;;11.71;95.76;101637.59;5044001;28;20017;-75
2021/12/31 02:51:29;;;;;;;;;;;;;;;11.72;95.98;101639.31;5008583;28;19949;-76
2021/12/31 02:53:55;;;;;;;;;;;;;;;11.74;96.01;101634.00;5017298;28;19947;-75
2021/12/31 02:56:21;;;;;;;;;;;;;;;11.73;95.99;101637.53;5028616;28;20473;-76
2021/12/31 02:58:47;;;;;;;;;;;;;;;11.71;96.16;101636.72;5028118;28;19950;-73
2021/12/31 03:01:12;;;;;;;;;;;;;;;11.69;96.25;101630.66;5030100;28;19972;-73
2021/12/31 03:03:39;;;;;;;;;;;;;;;11.78;96.27;101619.78;5033190;28;19963;-73
2021/12/31 03:06:04;;;;;;;;;;;;;;;11.84;95.83;101609.00;5030473;28;20351;-76
2021/12/31 03:08:31;;;;;;;;;;;;;;;11.97;95.15;101617.25;5024534;28;19951;-73
2021/12/31 03:10:58;;;;;;;;;;;;;;;12.04;94.95;101607.38;5062734;28;19944;-75
2021/12/31 03:13:24;;;;;;;;;;;;;;;12.09;94.55;101610.69;5036371;28;20425;-75
2021/12/31 03:16:06;;;;;;;;;;;;;;;12.13;94.27;101596.47;5042449;28;19946;-77
2021/12/31 03:18:32;;;;;;;;;;;;;;;12.15;94.41;101585.88;5048130;28;19954;-77
2021/12/31 03:20:59;;;;;;;;;;;;;;;12.17;94.09;101576.97;5043420;28;19953;-76
2021/12/31 03:23:25;;;;;;;;;;;;;;;12.20;93.96;101579.50;5040041;28;20033;-70
2021/12/31 03:25:51;;;;;;;;;;;;;;;12.23;93.63;101580.28;5044199;28;20714;-73
2021/12/31 03:28:16;;;;;;;;;;;;;;;12.27;93.59;101584.50;5044648;28;19964;-74
2021/12/31 03:30:41;;;;;;;;;;;;;;;12.29;93.50;101585.28;5039649;28;19955;-75
2021/12/31 03:33:07;;;;;;;;;;;;;;;12.33;93.08;101571.09;5036583;28;19952;-73
2021/12/31 03:35:32;;;;;;;;;;;;;;;12.38;92.65;101569.09;5042863;28;19959;-74
2021/12/31 03:37:57;;;;;;;;;;;;;;;12.51;91.84;101565.00;5044509;28;19956;-75
2021/12/31 03:40:23;;;;;;;;;;;;;;;12.55;91.40;101567.53;5039373;28;19986;-76
2021/12/31 03:42:48;;;;;;;;;;;;;;;12.53;91.52;101568.44;5018593;28;19948;-75
2021/12/31 03:45:13;;;;;;;;;;;;;;;12.56;91.06;101559.53;5047740;28;19997;-77
2021/12/31 03:47:38;;;;;;;;;;;;;;;12.58;91.02;101557.69;5046122;28;20363;-76
2021/12/31 03:50:04;;;;;;;;;;;;;;;12.59;90.91;101551.50;5039488;28;19959;-70
2021/12/31 03:52:29;;;;;;;;;;;;;;;12.61;90.64;101559.34;5047467;28;19949;-75
2021/12/31 03:54:55;;;;;;;;;;;;;;;12.64;90.69;101553.94;5044565;28;19947;-76
2021/12/31 03:57:20;;;;;;;;;;;;;;;12.63;90.22;101560.97;5043624;28;20008;-69
2021/12/31 03:59:45;;;;;;;;;;;;;;;12.68;89.97;101566.03;5040858;28;20588;-77
2021/12/31 04:02:10;;;;;;;;;;;;;;;12.63;90.31;101554.84;5037682;28;19957;-74
2021/12/31 04:04:36;;;;;;;;;;;;;;;12.60;90.29;101563.75;5048367;28;19955;-74
2021/12/31 04:07:01;;;;;;;;;;;;;;;12.62;90.11;101550.50;5038686;28;20449;-69
2021/12/31 04:09:26;;;;;;;;;;;;;;;12.61;90.09;101564.59;5042389;28;20376;-74
2021/12/31 04:11:52;;;;;;;;;;;;;;;12.59;89.87;101558.53;5041203;28;19924;-74
2021/12/31 04:14:17;;;;;;;;;;;;;;;12.64;89.65;101562.69;5046240;28;19961;-70
2021/12/31 04:16:42;;;;;;;;;;;;;;;12.59;89.81;101561.16;5038860;28;19961;-70
2021/12/31 04:19:08;;;;;;;;;;;;;;;12.58;89.75;101549.78;5046381;28;19916;-71
2021/12/31 04:21:34;;;;;;;;;;;;;;;12.58;89.40;101549.78;5048651;28;19955;-74
2021/12/31 04:26:40;;;;;;;;;;;;;;;12.57;89.28;101539.31;5042632;28;20046;-73
2021/12/31 04:29:05;;;;;;;;;;;;;;;12.57;89.12;101544.59;5050073;28;19966;-75
2021/12/31 04:31:30;;;;;;;;;;;;;;;12.60;88.60;101525.97;5050666;28;19952;-74
2021/12/31 04:33:56;;;;;;;;;;;;;;;12.62;88.21;101529.41;5050209;28;20031;-69
2021/12/31 04:36:21;;;;;;;;;;;;;;;12.60;88.54;101510.16;5032625;28;20322;-71
2021/12/31 04:38:46;;;;;;;;;;;;;;;12.61;88.21;101511.88;5023645;28;19987;-70
2021/12/31 04:41:12;;;;;;;;;;;;;;;12.55;88.52;101499.81;5040319;28;20733;-70
2021/12/31 04:43:37;;;;;;;;;;;;;;;12.58;88.03;101494.44;5041838;28;19949;-71
2021/12/31 04:46:02;;;;;;;;;;;;;;;12.60;87.89;101497.84;5036799;28;20048;-71
2021/12/31 04:48:27;;;;;;;;;;;;;;;12.60;87.78;101495.22;5057596;28;19957;-72
2021/12/31 04:50:53;;;;;;;;;;;;;;;12.61;87.53;101490.78;5042201;28;19953;-71
2021/12/31 04:53:18;;;;;;;;;;;;;;;12.51;88.18;101493.84;5045813;28;20034;-71
2021/12/31 04:55:44;;;;;;;;;;;;;;;12.47;88.27;101492.25;5044327;28;20325;-70
2021/12/31 04:58:09;;;;;;;;;;;;;;;12.47;88.17;101480.88;5037499;28;19953;-69
2021/12/31 05:00:34;;;;;;;;;;;;;;;12.46;88.21;101479.16;5040192;28;20351;-70
2021/12/31 05:03:15;;;;;;;;;;;;;;;12.48;88.12;101491.34;5046202;28;19952;-70
2021/12/31 05:05:40;;;;;;;;;;;;;;;12.50;87.73;101478.94;5045621;28;19956;-70
2021/12/31 05:08:05;;;;;;;;;;;;;;;12.55;87.43;101488.44;5045504;28;19964;-71
2021/12/31 05:10:32;;;;;;;;;;;;;;;12.55;87.47;101475.25;5044948;28;19956;-71
2021/12/31 05:12:58;;;;;;;;;;;;;;;12.47;87.89;101481.72;5044067;28;20053;-72
2021/12/31 05:15:27;;;;;;;;;;;;;;;12.41;87.85;101482.00;5028667;28;19952;-75
2021/12/31 05:17:52;;;;;;;;;;;;;;;12.40;88.01;101482.91;5036954;28;19956;-74
2021/12/31 05:20:18;;;;;;;;;;;;;;;12.42;87.90;101473.19;5040968;28;19985;-74
2021/12/31 05:22:44;;;;;;;;;;;;;;;12.40;87.90;101482.09;5040631;28;20006;-74
2021/12/31 05:25:09;;;;;;;;;;;;;;;12.41;87.75;101473.22;5041104;28;19991;-74
2021/12/31 05:27:34;;;;;;;;;;;;;;;12.45;87.14;101478.31;5030631;28;20490;-75
2021/12/31 05:30:00;;;;;;;;;;;;;;;12.43;87.26;101459.06;5045847;28;20291;-74
2021/12/31 05:32:25;;;;;;;;;;;;;;;12.43;87.11;101466.97;5051293;28;19952;-74
2021/12/31 05:34:50;;;;;;;;;;;;;;;12.39;87.32;101462.75;5052372;28;20519;-74
2021/12/31 05:37:16;;;;;;;;;;;;;;;12.40;87.45;101466.28;5046594;28;19959;-74
2021/12/31 05:39:41;;;;;;;;;;;;;;;12.36;87.09;101481.34;5043876;28;20295;-73
2021/12/31 05:42:06;;;;;;;;;;;;;;;12.32;87.40;101492.94;5041998;28;20003;-74
2021/12/31 05:44:32;;;;;;;;;;;;;;;12.33;87.40;101471.78;5044236;28;20706;-74
2021/12/31 05:46:57;;;;;;;;;;;;;;;12.31;87.36;101464.88;5049060;28;20431;-73
2021/12/31 05:49:23;;;;;;;;;;;;;;;12.29;87.68;101464.09;5041738;28;19956;-75
2021/12/31 05:51:50;;;;;;;;;;;;;;;12.30;87.70;101481.63;5047490;28;19951;-75
2021/12/31 05:54:15;;;;;;;;;;;;;;;12.30;87.63;101476.34;5042601;28;19965;-74
2021/12/31 05:56:40;;;;;;;;;;;;;;;12.26;87.98;101470.38;5043383;28;19953;-73
2021/12/31 05:59:05;;;;;;;;;;;;;;;12.28;87.70;101476.44;5040668;28;20634;-74
2021/12/31 06:01:31;;;;;;;;;;;;;;;12.25;87.82;101488.84;5049714;28;19953;-75
2021/12/31 06:03:56;;;;;;;;;;;;;;;12.24;87.84;101479.25;5050398;28;19958;-75
2021/12/31 06:06:21;;;;;;;;;;;;;;;12.19;87.98;101485.56;5050176;28;20647;-76
2021/12/31 06:08:47;;;;;;;;;;;;;;;12.16;88.09;101492.75;5039972;28;20348;-74
2021/12/31 06:11:12;;;;;;;;;;;;;;;12.13;88.28;101501.63;5042895;28;19997;-70
2021/12/31 06:13:37;;;;;;;;;;;;;;;12.15;88.18;101494.53;5043776;28;19957;-70
2021/12/31 06:16:04;;;;;;;;;;;;;;;12.11;88.75;101503.50;5043617;28;19956;-70
2021/12/31 06:18:30;;;;;;;;;;;;;;;12.11;88.33;101495.59;5051567;28;19984;-70
2021/12/31 06:20:55;;;;;;;;;;;;;;;12.09;88.77;101494.78;5050136;28;20477;-71
2021/12/31 06:23:20;;;;;;;;;;;;;;;12.08;88.89;101485.19;5047074;28;20032;-70
2021/12/31 06:25:46;;;;;;;;;;;;;;;12.07;88.86;101491.38;5050826;28;19953;-71
2021/12/31 06:28:11;;;;;;;;;;;;;;;12.02;89.24;101482.78;5060963;28;20086;-74
2021/12/31 06:30:36;;;;;;;;;;;;;;;12.00;89.02;101484.66;5043021;28;19971;-74
2021/12/31 06:33:02;;;;;;;;;;;;;;;12.00;89.22;101484.66;5045001;28;19961;-73
2021/12/31 06:35:27;;;;;;;;;;;;;;;11.93;89.29;101476.13;5045281;28;19952;-72
2021/12/31 06:37:54;;;;;;;;;;;;;;;11.94;89.75;101487.50;5044770;28;19957;-69
2021/12/31 06:40:19;;;;;;;;;;;;;;;11.96;89.41;101477.78;5039767;28;19968;-70
2021/12/31 06:42:44;;;;;;;;;;;;;;;12.01;89.16;101481.09;5046180;28;19950;-71
2021/12/31 06:45:10;;;;;;;;;;;;;;;11.98;89.64;101471.53;5041225;28;20080;-70
2021/12/31 06:47:35;;;;;;;;;;;;;;;12.04;89.12;101470.41;5044810;28;19969;-71
2021/12/31 06:50:01;;;;;;;;;;;;;;;12.05;88.79;101456.34;5048968;28;20318;-73
2021/12/31 06:52:26;;;;;;;;;;;;;;;12.04;89.55;101458.13;5044013;28;19947;-69
2021/12/31 06:54:51;;;;;;;;;;;;;;;12.05;89.03;101457.19;5033276;28;19959;-73
2021/12/31 06:57:16;;;;;;;;;;;;;;;12.10;88.46;101470.16;5043538;28;20308;-72
2021/12/31 06:59:42;;;;;;;;;;;;;;;12.09;88.92;101463.19;5067722;28;19993;-72
2021/12/31 07:02:08;;;;;;;;;;;;;;;12.09;88.78;101451.78;5051338;28;19959;-75
2021/12/31 07:04:33;;;;;;;;;;;;;;;12.08;88.84;101472.00;5042729;28;19980;-75
2021/12/31 07:06:58;;;;;;;;;;;;;;;12.05;89.02;101456.34;5033325;28;19955;-75
2021/12/31 07:09:24;;;;;;;;;;;;;;;12.07;88.73;101459.75;5039257;28;20429;-74
2021/12/31 07:11:49;;;;;;;;;;;;;;;12.00;89.03;101480.22;5038824;28;19997;-75
2021/12/31 07:14:14;;;;;;;;;;;;;;;12.00;89.11;101482.03;5031641;28;19954;-75
2021/12/31 07:16:39;;;;;;;;;;;;;;;11.96;89.24;101491.78;5037446;28;19945;-73
2021/12/31 07:19:05;;;;;;;;;;;;;;;11.96;89.49;101488.31;5050479;28;19953;-73
2021/12/31 07:21:30;;;;;;;;;;;;;;;12.00;89.30;101503.09;5047232;28;20425;-70
2021/12/31 07:23:55;;;;;;;;;;;;;;;12.02;89.05;101501.22;5045725;28;20001;-69
2021/12/31 07:26:21;;;;;;;;;;;;;;;12.00;89.23;101496.03;5041060;28;20375;-70
2021/12/31 07:28:46;;;;;;;;;;;;;;;12.00;88.99;101501.31;5039603;28;20351;-69
2021/12/31 07:31:14;;;;;;;;;;;;;;;12.02;88.67;101498.59;5045648;28;19955;-72
2021/12/31 07:33:39;;;;;;;;;;;;;;;12.00;89.05;101501.31;5047161;28;19959;-75
2021/12/31 07:36:04;;;;;;;;;;;;;;;12.00;88.80;101493.41;5048492;28;19954;-74
2021/12/31 07:41:10;;;;;;;;;;;;;;;11.97;89.17;101513.72;5038194;28;19964;-71
2021/12/31 07:43:35;;;;;;;;;;;;;;;11.96;89.16;101515.47;5041793;28;20344;-71
2021/12/31 07:46:00;;;;;;;;;;;;;;;12.01;89.06;101512.72;5045639;28;20090;-71
2021/12/31 07:48:26;;;;;;;;;;;;;;;12.00;89.17;101509.22;5042931;28;19949;-72
2021/12/31 07:50:52;;;;;;;;;;;;;;;11.99;88.92;101512.75;5041572;28;19960;-71
2021/12/31 07:53:17;;;;;;;;;;;;;;;12.00;89.09;101516.25;5041402;28;20080;-72
2021/12/31 07:55:42;;;;;;;;;;;;;;;11.98;89.02;101523.38;5039610;28;20404;-76
2021/12/31 07:58:08;;;;;;;;;;;;;;;11.95;89.25;101519.06;5041192;28;19953;-76
2021/12/31 08:00:33;;;;;;;;;;;;;;;11.97;89.19;101516.34;5041339;28;19989;-73
2021/12/31 08:02:59;;;;;;;;;;;;;;;12.01;88.93;101532.00;5048482;28;19951;-73
2021/12/31 08:05:25;;;;;;;;;;;;;;;11.98;88.90;101523.38;5048100;28;19956;-74
2021/12/31 08:07:50;;;;;;;;;;;;;;;11.97;89.15;101521.63;5047123;28;20745;-75
2021/12/31 08:10:16;;;;;;;;;;;;;;;11.95;88.93;101510.28;5040636;28;20437;-75
2021/12/31 08:12:41;;;;;;;;;;;;;;;11.95;89.29;101523.44;5046899;28;20067;-72
2021/12/31 08:15:06;;;;;;;;;;;;;;;11.92;89.10;101519.19;5036583;28;19983;-74
2021/12/31 08:17:32;;;;;;;;;;;;;;;11.92;89.46;101537.63;5051209;28;19968;-73
2021/12/31 08:19:57;;;;;;;;;;;;;;;11.97;88.91;101529.50;5049193;28;19965;-73
2021/12/31 08:22:23;;;;;;;;;;;;;;;11.98;88.93;101533.91;5038487;28;19990;-74
2021/12/31 08:24:48;;;;;;;;;;;;;;;11.99;89.04;101525.09;5045576;28;19961;-74
2021/12/31 08:27:13;;;;;;;;;;;;;;;12.00;88.93;101537.34;5036251;28;19953;-71
2021/12/31 08:29:39;;;;;;;;;;;;;;;11.97;88.78;101527.72;5031273;28;19955;-72
2021/12/31 08:32:04;;;;;;;;;;;;;;;11.94;89.39;101525.25;5035893;28;20372;-72
2021/12/31 08:34:30;;;;;;;;;;;;;;;11.98;88.67;101526.84;5037535;28;19963;-73
2021/12/31 08:36:55;;;;;;;;;;;;;;;11.99;88.76;101522.44;5046004;28;19951;-74
2021/12/31 08:39:20;;;;;;;;;;;;;;;11.98;88.93;101516.31;5048100;28;20363;-73
2021/12/31 08:41:45;;;;;;;;;;;;;;;11.96;88.87;101522.53;5026184;28;19929;-74
2021/12/31 08:44:11;;;;;;;;;;;;;;;11.98;88.78;101533.91;5029320;28;19948;-74
2021/12/31 08:46:36;;;;;;;;;;;;;;;11.99;88.83;101525.94;5028825;28;19961;-74
2021/12/31 08:49:02;;;;;;;;;;;;;;;12.01;88.81;101531.16;5028089;28;19955;-73
2021/12/31 08:51:27;;;;;;;;;;;;;;;12.00;88.75;101546.06;5027839;28;19949;-73
2021/12/31 08:53:53;;;;;;;;;;;;;;;12.03;88.45;101534.53;5026875;28;19953;-73
2021/12/31 08:56:18;;;;;;;;;;;;;;;12.03;88.65;101542.44;5029119;28;19963;-74
2021/12/31 08:58:44;;;;;;;;;;;;;;;12.05;88.41;101545.88;5017791;28;19950;-72
2021/12/31 09:01:09;;;;;;;;;;;;;;;12.06;88.62;101551.09;5022509;28;20373;-72
2021/12/31 09:03:34;;;;;;;;;;;;;;;12.05;88.85;101543.25;5029501;28;20046;-74
2021/12/31 09:06:00;;;;;;;;;;;;;;;12.09;88.65;101538.69;5023738;28;20077;-74
2021/12/31 09:08:25;;;;;;;;;;;;;;;12.08;88.50;101543.13;5024918;28;19953;-74
2021/12/31 09:10:50;;;;;;;;;;;;;;;12.10;88.50;101536.03;5029503;28;19955;-72
2021/12/31 09:13:16;;;;;;;;;;;;;;;12.12;88.54;101535.94;5024023;28;20283;-73
2021/12/31 09:15:41;;;;;;;;;;;;;;;12.13;88.58;101538.50;5029554;28;19998;-72
2021/12/31 09:18:07;;;;;;;;;;;;;;;12.18;88.41;101515.47;5022614;28;19954;-71
2021/12/31 09:20:32;;;;;;;;;;;;;;;12.22;88.03;101526.72;5025278;28;19961;-71
2021/12/31 09:22:57;;;;;;;;;;;;;;;12.17;88.28;101537.47;5025147;28;20587;-72
2021/12/31 09:25:23;;;;;;;;;;;;;;;12.16;88.23;101550.72;5029483;28;19956;-71
2021/12/31 09:27:48;;;;;;;;;;;;;;;12.17;88.19;101549.78;5058933;28;19953;-71
2021/12/31 09:30:13;;;;;;;;;;;;;;;12.15;88.17;101562.16;5023471;28;19921;-72
2021/12/31 09:32:39;;;;;;;;;;;;;;;12.15;88.27;101560.38;5023667;28;19962;-71
2021/12/31 09:35:06;;;;;;;;;;;;;;;12.15;88.68;101557.75;5026744;28;19959;-72
2021/12/31 09:37:31;;;;;;;;;;;;;;;12.11;88.72;101564.09;5026533;28;19964;-71
2021/12/31 09:39:56;;;;;;;;;;;;;;;12.05;91.53;101595.94;5018983;28;19967;-72
2021/12/31 09:42:22;;;;;;;;;;;;;;;11.81;93.66;101590.69;5049182;28;19956;-71
2021/12/31 09:44:47;;;;;;;;;;;;;;;11.69;93.91;101588.53;5047954;28;20426;-71
2021/12/31 09:47:13;;;;;;;;;;;;;;;11.65;94.17;101593.06;5040730;28;19958;-72
2021/12/31 09:49:39;;;;;;;;;;;;;;;11.65;94.59;101600.97;5049657;28;20421;-72
2021/12/31 09:52:07;;;;;;;;;;;;;;;11.70;94.17;101588.50;5041590;28;20325;-72
2021/12/31 09:54:32;;;;;;;;;;;;;;;11.71;93.75;101599.88;5050577;28;19973;-72
2021/12/31 09:56:57;;;;;;;;;;;;;;;11.68;94.06;101605.28;5041231;28;19921;-72
2021/12/31 09:59:24;;;;;;;;;;;;;;;11.66;93.75;101612.38;5048716;28;19966;-72
2021/12/31 10:02:05;;;;;;;;;;;;;;;11.69;93.46;101599.06;5038973;28;19949;-72
2021/12/31 10:04:46;;;;;;;;;;;;;;;11.75;93.17;101596.22;5047919;28;20123;-72
2021/12/31 10:07:12;;;;;;;;;;;;;;;11.72;92.79;101596.31;5034720;28;19979;-71
2021/12/31 10:09:40;;;;;;;;;;;;;;;11.78;92.39;101580.31;5044799;28;19952;-73
2021/12/31 10:12:05;;;;;;;;;;;;;;;11.73;92.29;101569.09;5049168;28;20088;-72
2021/12/31 10:14:46;;;;;;;;;;;;;;;11.77;91.88;101575.97;5050055;28;20442;-72
2021/12/31 10:17:11;;;;;;;;;;;;;;;11.76;92.11;101580.34;5045797;28;19974;-74
2021/12/31 10:19:54;;;;;;;;;;;;;;;11.78;92.02;101579.44;5048387;28;20410;-75
2021/12/31 10:22:19;;;;;;;;;;;;;;;11.76;92.76;101564.56;5041934;28;20015;-74
2021/12/31 10:24:47;;;;;;;;;;;;;;;11.78;92.32;101558.38;5049538;28;20354;-76
2021/12/31 10:27:12;;;;;;;;;;;;;;;11.82;92.28;101544.19;5047004;28;20689;-72
2021/12/31 10:29:53;;;;;;;;;;;;;;;11.86;91.45;101546.63;5046916;28;19953;-73
2021/12/31 10:32:18;;;;;;;;;;;;;;;11.86;91.85;101545.75;5029340;28;20011;-75
2021/12/31 10:34:44;;;;;;;;;;;;;;;11.85;91.67;101529.09;5045804;28;20090;-75
2021/12/31 10:37:25;;;;;;;;;;;;;;;11.88;91.03;101513.19;5049558;28;20024;-74
2021/12/31 10:40:06;;;;;;;;;;;;;;;11.88;91.56;101525.47;5049952;28;19956;-73
2021/12/31 10:42:32;;;;;;;;;;;;;;;11.94;91.08;101505.94;5040909;28;19986;-73
2021/12/31 10:45:00;;;;;;;;;;;;;;;12.01;90.66;101539.03;5046020;28;19940;-72
2021/12/31 10:47:25;;;;;;;;;;;;;;;12.05;90.56;101556.41;5042691;28;19951;-71
2021/12/31 10:50:06;;;;;;;;;;;;;;;12.07;90.51;101546.69;5044460;28;19954;-72
2021/12/31 10:52:53;;;;;;;;;;;;;;;12.13;90.60;101553.47;5030229;28;20091;-73
2021/12/31 10:58:17;;;;;;;;;;;;;;;12.17;90.01;101545.38;5046213;28;19948;-73
2021/12/31 11:00:43;;;;;;;;;;;;;;;12.18;89.95;101544.44;5049271;28;19950;-73
2021/12/31 11:03:09;;;;;;;;;;;;;;;12.20;90.07;101539.97;5045057;28;19953;-71
2021/12/31 11:05:35;;;;;;;;;;;;;;;12.19;89.55;101545.28;5048891;28;19953;-74
2021/12/31 11:08:02;;;;;;;;;;;;;;;12.18;89.66;101541.81;5044968;28;19960;-73
2021/12/31 11:10:30;;;;;;;;;;;;;;;12.29;89.64;101535.22;5036872;28;19953;-76
2021/12/31 11:12:56;;;;;;;;;;;;;;;12.26;89.26;101532.72;5020741;28;19957;-74
2021/12/31 11:15:22;;;;;;;;;;;;;;;12.28;88.82;101546.69;5015843;28;19954;-75
2021/12/31 11:17:48;;;;;;;;;;;;;;;12.16;88.83;101538.38;5040835;28;19979;-74
2021/12/31 11:20:19;;;;;;;;;;;;;;;12.13;89.43;101541.13;5030493;28;20503;-72
2021/12/31 11:22:44;;;;;;;;;;;;;;;12.02;90.42;101540.72;5046446;28;20088;-72
2021/12/31 11:25:25;;;;;;;;;;;;;;;11.85;91.09;101544.91;5046734;28;20003;-71
2021/12/31 11:27:51;;;;;;;;;;;;;;;11.80;91.45;101536.31;5056373;28;19955;-75
2021/12/31 11:30:32;;;;;;;;;;;;;;;11.71;92.44;101536.69;5056265;28;19958;-75
2021/12/31 11:32:59;;;;;;;;;;;;;;;11.68;93.06;101536.84;5047031;28;19960;-75
2021/12/31 11:35:40;;;;;;;;;;;;;;;11.74;92.46;101547.13;5034960;28;20409;-75
2021/12/31 11:38:06;;;;;;;;;;;;;;;11.52;93.07;101544.50;5036886;28;20408;-74
2021/12/31 11:40:33;;;;;;;;;;;;;;;11.42;94.13;101565.88;5038672;28;20046;-76
2021/12/31 11:43:14;;;;;;;;;;;;;;;11.39;94.74;101557.25;5040094;28;19955;-75
2021/12/31 11:45:39;;;;;;;;;;;;;;;11.25;95.22;101569.16;5035877;28;19987;-75
2021/12/31 11:48:20;;;;;;;;;;;;;;;11.19;95.26;101572.03;5036851;28;20406;-75
2021/12/31 11:51:01;;;;;;;;;;;;;;;11.16;95.25;101571.28;5045224;28;19948;-75
2021/12/31 11:53:26;;;;;;;;;;;;;;;11.19;95.08;101569.41;5039224;28;20346;-77
2021/12/31 11:55:51;;;;;;;;;;;;;;;11.15;95.28;101557.28;5038938;28;19947;-75
2021/12/31 11:58:32;;;;;;;;;;;;;;;11.12;94.67;101560.03;5057064;28;19963;-76
2021/12/31 12:01:17;;;;;;;;;;;;;;;11.15;94.82;101559.91;5046563;28;19955;-75
2021/12/31 12:03:43;;;;;;;;;;;;;;;11.24;94.32;101559.56;5056268;28;19961;-73
2021/12/31 12:06:08;;;;;;;;;;;;;;;11.28;94.28;101555.91;5029503;28;19958;-74
2021/12/31 12:08:49;;;;;;;;;;;;;;;11.32;94.94;101545.25;5031142;28;20620;-74
2021/12/31 12:11:35;;;;;;;;;;;;;;;11.40;93.61;101551.94;5040213;28;20500;-74
2021/12/31 12:14:15;;;;;;;;;;;;;;;11.48;92.92;101541.09;5056054;28;20402;-71
2021/12/31 12:16:57;;;;;;;;;;;;;;;11.65;92.95;101555.38;5024699;28;19958;-71
2021/12/31 12:19:22;;;;;;;;;;;;;;;11.70;92.62;101574.47;5019721;28;19980;-72
2021/12/31 12:21:52;;;;;;;;;;;;;;;11.73;92.12;101566.47;5025397;28;19958;-74
2021/12/31 12:24:22;;;;;;;;;;;;;;;11.67;92.44;101566.72;5020969;28;19952;-74
2021/12/31 12:26:47;;;;;;;;;;;;;;;11.68;92.14;101571.91;5032214;28;20062;-74
2021/12/31 12:29:24;;;;;;;;;;;;;;;11.72;92.10;101575.28;5029000;28;20054;-74
2021/12/31 12:32:05;;;;;;;;;;;;;;;11.75;91.95;101567.25;5039714;28;19956;-75
2021/12/31 12:34:30;;;;;;;;;;;;;;;11.85;91.46;101580.91;5038125;28;19976;-75
2021/12/31 12:36:55;;;;;;;;;;;;;;;11.84;91.72;101576.56;5038291;28;20351;-74
2021/12/31 12:39:20;;;;;;;;;;;;;;;11.88;91.61;101584.28;5044432;28;20547;-76
2021/12/31 12:41:48;;;;;;;;;;;;;;;11.73;91.54;101595.41;5040870;28;19969;-75
2021/12/31 12:44:13;;;;;;;;;;;;;;;11.67;91.72;101583.34;5035649;28;20515;-75
2021/12/31 12:46:49;;;;;;;;;;;;;;;11.68;91.78;101597.38;5041075;28;19947;-75
2021/12/31 12:49:17;;;;;;;;;;;;;;;11.55;92.09;101600.50;5030533;28;19954;-75
2021/12/31 12:51:43;;;;;;;;;;;;;;;11.42;92.30;101612.41;5042124;28;20055;-74